Terminal Aerodrome Forecast
Issued by NWS Wakefield, VA

Home | Current Version | Previous Version | Text Only | Print | Product List | Glossary On
Versions: 1 2 3 4 5 6 7 8 9 10 11 12 13 14 15 16 17 18 19 20 21 22 23 24
000
FTUS41 KAKQ 241700
TAFORF
TAF
KORF 241739Z 2418/2518 34006KT P6SM BKN025 BKN070 OVC120
      TEMPO 2418/2422 5SM -SHRA BKN012
     FM250000 03003KT P6SM -SHRA SCT020 BKN120
     FM250200 03004KT P6SM SCT010 BKN050 OVC120
     FM251400 03009KT P6SM SCT060=

USA.gov is the U.S. government's official web portal to all federal, state and local government web resources and services.